< < Back
Terminal Aerodrome Forecast


Current Version              Previous Versions:   1  2  3  4  5  6  7  8  9  

Terminal Aerodrome Forecast

198
FTUS42 KFFC 171120
TAFPDK
TAF
KPDK 171120Z 1712/1812 30005KT P6SM SKC
     FM171400 31009KT P6SM SKC
     FM180000 31007KT P6SM SCT250=



Latest METAR

038
SAUS70 KWBC 180800 RRL
MTRPDK
METAR KPDK 180753Z AUTO 31005KT 10SM CLR 03/00 A3012 RMK AO2 SLP210
T00330000


USA.gov is the U.S. government's official web portal to all federal, state and local government web resources and services.